createdAt,value
2024-03-20T00:02:21.058Z,100.00
2024-03-20T00:07:23.913Z,100.00
2024-03-20T00:12:28.128Z,100.00
2024-03-20T00:17:31.443Z,100.00
2024-03-20T00:22:36.397Z,100.00
2024-03-20T00:27:39.510Z,100.00
2024-03-20T00:32:42.040Z,100.00
2024-03-20T00:37:44.740Z,100.00
2024-03-20T00:42:47.090Z,100.00
2024-03-20T00:47:49.618Z,100.00
2024-03-20T00:52:53.132Z,100.00
2024-03-20T00:57:56.715Z,100.00
2024-03-20T01:02:59.385Z,100.00
2024-03-20T01:08:02.058Z,100.00
2024-03-20T01:13:05.122Z,100.00
2024-03-20T01:18:08.355Z,100.00
2024-03-20T01:23:11.151Z,100.00
2024-03-20T01:28:13.666Z,100.00
2024-03-20T01:33:16.097Z,100.00
2024-03-20T01:38:18.949Z,100.00
2024-03-20T01:43:22.292Z,100.00
2024-03-20T01:48:24.676Z,100.00
2024-03-20T01:53:27.533Z,100.00
2024-03-20T01:58:30.233Z,100.00
2024-03-20T02:03:32.803Z,100.00
2024-03-20T02:08:35.677Z,100.00
2024-03-20T02:13:45.962Z,100.00
2024-03-20T02:18:50.582Z,100.00
2024-03-20T02:23:53.330Z,100.00
2024-03-20T02:28:55.775Z,100.00
2024-03-20T02:33:58.869Z,100.00
2024-03-20T02:39:01.221Z,100.00
2024-03-20T02:44:04.736Z,100.00
2024-03-20T02:49:07.126Z,100.00
2024-03-20T02:54:09.827Z,100.00
2024-03-20T02:59:12.689Z,100.00
2024-03-20T03:04:15.201Z,100.00
2024-03-20T03:09:20.649Z,100.00
2024-03-20T03:14:23.310Z,100.00
2024-03-20T03:19:25.809Z,100.00
2024-03-20T03:24:28.364Z,100.00
2024-03-20T03:29:30.942Z,100.00
2024-03-20T03:34:33.920Z,100.00
2024-03-20T03:39:36.559Z,100.00
2024-03-20T03:44:39.383Z,100.00
2024-03-20T03:49:42.329Z,100.00
2024-03-20T03:54:45.543Z,100.00
2024-03-20T03:59:48.209Z,100.00
2024-03-20T04:04:51.496Z,100.00
2024-03-20T04:09:55.349Z,100.00
2024-03-20T04:14:58.169Z,100.00
2024-03-20T04:20:00.582Z,100.00
2024-03-20T04:25:04.923Z,100.00
2024-03-20T04:30:09.082Z,100.00
2024-03-20T04:35:12.776Z,100.00
2024-03-20T04:40:16.131Z,100.00
2024-03-20T04:45:18.532Z,100.00
2024-03-20T04:50:21.846Z,100.00
2024-03-20T04:55:24.298Z,100.00
2024-03-20T05:00:26.794Z,100.00
2024-03-20T05:05:29.393Z,100.00
2024-03-20T05:10:31.890Z,100.00
2024-03-20T05:15:39.317Z,100.00
2024-03-20T05:20:41.722Z,100.00
2024-03-20T05:25:44.333Z,100.00
2024-03-20T05:30:46.983Z,100.00
2024-03-20T05:35:51.023Z,100.00
2024-03-20T05:40:53.549Z,100.00
2024-03-20T05:45:56.090Z,100.00
2024-03-20T05:50:58.811Z,100.00
2024-03-20T05:56:01.557Z,100.00
2024-03-20T06:01:04.354Z,100.00
2024-03-20T06:06:07.566Z,100.00
2024-03-20T06:11:10.197Z,100.00
2024-03-20T06:16:16.099Z,100.00
2024-03-20T06:21:18.959Z,100.00
2024-03-20T06:26:21.492Z,100.00
2024-03-20T06:31:26.865Z,100.00
2024-03-20T06:36:30.003Z,100.00
2024-03-20T06:41:35.063Z,100.00
2024-03-20T06:46:39.378Z,100.00
2024-03-20T06:51:43.886Z,100.00
2024-03-20T06:56:54.198Z,100.00
2024-03-20T07:01:59.270Z,100.00
2024-03-20T07:07:04.520Z,100.00
2024-03-20T07:12:07.468Z,100.00
2024-03-20T07:17:09.875Z,100.00
2024-03-20T07:22:16.170Z,100.00
2024-03-20T07:27:18.913Z,100.00
2024-03-20T07:32:22.079Z,100.00
2024-03-20T07:37:26.446Z,100.00
2024-03-20T07:42:29.045Z,100.00
2024-03-20T07:47:31.524Z,100.00
2024-03-20T07:52:34.020Z,100.00
2024-03-20T07:57:36.457Z,100.00
2024-03-20T08:02:39.120Z,100.00
2024-03-20T08:07:45.400Z,100.00
2024-03-20T08:12:48.598Z,100.00
2024-03-20T08:17:51.632Z,100.00
2024-03-20T08:22:54.216Z,100.00
2024-03-20T08:27:58.535Z,100.00
2024-03-20T08:33:00.995Z,100.00
2024-03-20T08:38:03.450Z,100.00
2024-03-20T08:43:17.740Z,98.14
2024-03-20T08:48:23.110Z,88.32
2024-03-20T08:53:25.512Z,85.15
2024-03-20T08:58:28.760Z,84.43
2024-03-20T09:03:31.769Z,74.03
2024-03-20T09:08:34.360Z,69.06
2024-03-20T09:13:43.931Z,67.66
2024-03-20T09:18:46.628Z,68.77
2024-03-20T09:23:49.164Z,64.12
2024-03-20T09:28:52.397Z,60.24
2024-03-20T09:33:54.775Z,60.45
2024-03-20T09:38:57.659Z,60.71
2024-03-20T09:44:01.504Z,58.51
2024-03-20T09:49:04.765Z,54.72
2024-03-20T09:54:09.128Z,51.69
2024-03-20T09:59:11.611Z,51.91
2024-03-20T10:04:15.614Z,52.64
2024-03-20T10:09:17.844Z,57.19
2024-03-20T10:14:22.672Z,61.30
2024-03-20T10:19:26.844Z,57.66
2024-03-20T10:24:29.980Z,57.12
2024-03-20T10:29:36.855Z,55.03
2024-03-20T10:34:42.980Z,52.38
2024-03-20T10:39:48.441Z,51.85
2024-03-20T10:44:56.527Z,51.19
2024-03-20T10:49:58.859Z,54.94
2024-03-20T10:55:01.915Z,56.26
2024-03-20T11:00:12.027Z,58.74
2024-03-20T11:05:41.179Z,60.98
2024-03-20T11:10:49.639Z,58.74
2024-03-20T11:15:53.132Z,52.95
2024-03-20T11:20:59.200Z,51.10
2024-03-20T11:26:04.315Z,50.31
2024-03-20T11:31:10.453Z,48.41
2024-03-20T11:36:19.578Z,50.33
2024-03-20T11:41:22.714Z,52.02
2024-03-20T11:46:25.748Z,53.13
2024-03-20T11:51:28.847Z,53.21
2024-03-20T11:56:35.485Z,51.32
2024-03-20T12:01:38.108Z,49.40
2024-03-20T12:06:41.618Z,47.03
2024-03-20T12:11:54.675Z,43.91
2024-03-20T12:16:57.210Z,43.40
2024-03-20T12:21:59.735Z,44.32
2024-03-20T12:27:22.904Z,44.73
2024-03-20T12:32:25.878Z,45.35
2024-03-20T12:37:30.596Z,48.32
2024-03-20T12:42:33.912Z,51.36
2024-03-20T12:47:36.616Z,53.23
2024-03-20T12:52:42.404Z,54.41
2024-03-20T12:57:45.281Z,54.99
2024-03-20T13:02:48.628Z,55.29
2024-03-20T13:07:51.027Z,54.96
2024-03-20T13:13:03.040Z,56.03
2024-03-20T13:18:06.467Z,56.84
2024-03-20T13:23:13.724Z,57.74
2024-03-20T13:28:18.788Z,57.04
2024-03-20T13:33:21.953Z,58.59
2024-03-20T13:38:24.873Z,58.84
2024-03-20T13:43:40.698Z,58.95
2024-03-20T13:48:44.822Z,59.30
2024-03-20T13:53:50.774Z,58.11
2024-03-20T13:58:53.843Z,57.96
2024-03-20T14:04:00.053Z,57.81
2024-03-20T14:09:05.036Z,58.34
2024-03-20T14:14:08.253Z,58.25
2024-03-20T14:19:10.602Z,57.09
2024-03-20T14:24:16.254Z,56.79
2024-03-20T14:29:20.179Z,58.67
2024-03-20T14:34:24.570Z,58.19
2024-03-20T14:39:29.410Z,58.00
2024-03-20T14:44:37.463Z,57.66
2024-03-20T14:49:42.215Z,59.10
2024-03-20T15:00:14.135Z,59.01
2024-03-20T15:05:17.878Z,59.78
2024-03-20T15:10:20.515Z,59.85
2024-03-20T15:15:23.598Z,61.25
2024-03-20T15:20:26.283Z,58.76
2024-03-20T15:25:28.762Z,58.45
2024-03-20T15:30:38.349Z,59.08
2024-03-20T15:35:44.098Z,58.43
2024-03-20T15:40:47.510Z,59.84
2024-03-20T15:45:50.225Z,61.66
2024-03-20T15:50:52.692Z,62.60
2024-03-20T15:55:56.915Z,61.07
2024-03-20T16:01:00.369Z,60.39
2024-03-20T16:06:09.566Z,62.37
2024-03-20T16:11:13.240Z,65.41
2024-03-20T16:16:20.840Z,67.34
2024-03-20T16:21:25.739Z,69.73
2024-03-20T16:26:28.958Z,73.68
2024-03-20T16:31:35.603Z,75.71
2024-03-20T16:36:43.139Z,78.82
2024-03-20T16:42:02.245Z,83.05
2024-03-20T16:47:05.517Z,86.39
2024-03-20T16:52:08.002Z,89.48
2024-03-20T16:57:13.055Z,92.54
2024-03-20T17:02:16.463Z,96.03
2024-03-20T17:07:20.492Z,99.11
2024-03-20T17:12:22.865Z,100.00
2024-03-20T17:17:25.144Z,100.00
2024-03-20T17:22:28.169Z,100.00
2024-03-20T17:27:30.866Z,100.00
2024-03-20T17:32:33.279Z,100.00
2024-03-20T17:37:37.207Z,100.00
2024-03-20T17:42:43.025Z,100.00
2024-03-20T17:47:45.278Z,100.00
2024-03-20T17:52:48.326Z,100.00
2024-03-20T17:57:51.194Z,100.00
2024-03-20T18:02:54.382Z,100.00
2024-03-20T18:07:57.199Z,100.00
2024-03-20T18:12:59.595Z,100.00
2024-03-20T18:18:04.774Z,100.00
2024-03-20T18:23:13.631Z,100.00
2024-03-20T18:28:17.411Z,100.00
2024-03-20T18:33:23.778Z,100.00
2024-03-20T18:38:26.595Z,100.00
2024-03-20T18:43:31.845Z,100.00
2024-03-20T18:48:34.771Z,100.00
2024-03-20T18:53:37.532Z,100.00
2024-03-20T18:58:41.135Z,100.00
2024-03-20T19:03:43.701Z,100.00
2024-03-20T19:08:47.059Z,100.00
2024-03-20T19:13:50.227Z,100.00
2024-03-20T19:18:52.498Z,100.00
2024-03-20T19:23:56.092Z,100.00
2024-03-20T19:29:03.429Z,100.00
2024-03-20T19:34:08.564Z,100.00
2024-03-20T19:39:14.402Z,100.00
2024-03-20T19:44:16.680Z,100.00
2024-03-20T19:49:20.212Z,100.00
2024-03-20T19:54:22.540Z,100.00
2024-03-20T19:59:24.900Z,100.00
2024-03-20T20:04:27.963Z,100.00
2024-03-20T20:09:38.553Z,100.00
2024-03-20T20:14:46.854Z,100.00
2024-03-20T20:19:52.012Z,100.00
2024-03-20T20:24:54.546Z,100.00
2024-03-20T20:30:00.714Z,100.00
2024-03-20T20:35:03.457Z,100.00
2024-03-20T20:40:14.020Z,100.00
2024-03-20T20:45:16.680Z,100.00
2024-03-20T20:50:20.420Z,100.00
2024-03-20T20:55:30.060Z,100.00
2024-03-20T21:00:33.474Z,100.00
2024-03-20T21:05:54.637Z,100.00
2024-03-20T21:11:15.663Z,100.00
2024-03-20T21:16:36.914Z,100.00
2024-03-20T21:21:40.164Z,100.00
2024-03-20T21:26:45.862Z,100.00
2024-03-20T21:31:48.465Z,100.00
2024-03-20T21:36:51.789Z,100.00
2024-03-20T21:41:54.591Z,100.00
2024-03-20T21:46:59.323Z,100.00
2024-03-20T21:52:02.162Z,100.00
2024-03-20T21:57:05.942Z,100.00
2024-03-20T22:02:19.055Z,100.00
2024-03-20T22:07:21.413Z,100.00
2024-03-20T22:12:24.826Z,100.00
2024-03-20T22:17:27.430Z,100.00
2024-03-20T22:22:30.401Z,100.00
2024-03-20T22:27:34.310Z,100.00
2024-03-20T22:32:37.184Z,100.00
2024-03-20T22:37:41.456Z,100.00
2024-03-20T22:42:48.586Z,100.00
2024-03-20T22:47:54.912Z,100.00
2024-03-20T22:52:57.278Z,100.00
2024-03-20T22:57:59.705Z,100.00
2024-03-20T23:03:02.348Z,100.00
2024-03-20T23:08:06.273Z,100.00
2024-03-20T23:13:11.088Z,100.00
2024-03-20T23:18:13.697Z,100.00
2024-03-20T23:23:16.414Z,100.00
2024-03-20T23:28:24.167Z,100.00
2024-03-20T23:33:27.643Z,100.00
2024-03-20T23:38:30.525Z,100.00
2024-03-20T23:43:34.271Z,100.00
2024-03-20T23:48:59.372Z,100.00
2024-03-20T23:54:02.140Z,100.00
2024-03-20T23:59:05.483Z,100.00
